Time;durP1;ratioP1;P1;durP2;ratioP2;P2;SDS_P1;SDS_P2;PMS_P1;PMS_P2;Temp;Humidity;BMP_temperature;BMP_pressure;BME280_temperature;BME280_humidity;BME280_pressure;Samples;Min_cycle;Max_cycle;Signal;HPM_P1;HPM_P2
2021/01/22 00:01:28;;;;;;;0.30;0.30;;;8.20;99.90;;;;;;4417099;32;20147;-74
2021/01/22 00:03:54;;;;;;;0.30;0.30;;;8.20;99.90;;;;;;4416335;32;20082;-74
2021/01/22 00:06:19;;;;;;;0.95;0.90;;;8.30;99.90;;;;;;4414027;32;20389;-74
2021/01/22 00:08:45;;;;;;;0.30;0.30;;;8.20;99.90;;;;;;4400921;32;20133;-74
2021/01/22 00:11:10;;;;;;;0.47;0.47;;;8.20;99.90;;;;;;4402682;32;20086;-73
2021/01/22 00:13:36;;;;;;;0.30;0.30;;;8.30;99.90;;;;;;4416808;32;20101;-74
2021/01/22 00:16:02;;;;;;;0.30;0.30;;;8.30;99.90;;;;;;4418276;32;20062;-73
2021/01/22 00:18:28;;;;;;;0.25;0.25;;;8.30;99.90;;;;;;4417922;32;20391;-73
2021/01/22 00:20:54;;;;;;;0.30;0.30;;;8.40;99.90;;;;;;4417955;32;20425;-73
2021/01/22 00:23:19;;;;;;;0.37;0.37;;;8.40;99.90;;;;;;4417983;32;20081;-74
2021/01/22 00:25:45;;;;;;;0.30;0.30;;;8.40;99.90;;;;;;4418961;32;20472;-74
2021/01/22 00:28:10;;;;;;;0.32;0.32;;;8.40;99.90;;;;;;4418065;32;20089;-73
2021/01/22 00:30:36;;;;;;;0.40;0.40;;;8.40;99.90;;;;;;4418876;32;20098;-74
2021/01/22 00:33:01;;;;;;;0.22;0.22;;;8.40;99.90;;;;;;4418677;32;20077;-74
2021/01/22 00:35:27;;;;;;;0.57;0.57;;;8.40;99.90;;;;;;4418562;32;20123;-74
2021/01/22 00:37:52;;;;;;;0.43;0.43;;;8.50;99.90;;;;;;4417923;32;20078;-74
2021/01/22 00:40:18;;;;;;;0.62;0.50;;;8.50;99.90;;;;;;4418293;32;20069;-74
2021/01/22 00:42:43;;;;;;;1.35;0.80;;;8.60;99.90;;;;;;4418501;32;20066;-73
2021/01/22 00:45:09;;;;;;;0.30;0.30;;;8.70;99.90;;;;;;4419212;32;20173;-73
2021/01/22 00:47:35;;;;;;;0.68;0.65;;;8.70;99.90;;;;;;4419346;32;20133;-74
2021/01/22 00:50:00;;;;;;;0.30;0.30;;;8.70;99.90;;;;;;4418223;32;20070;-74
2021/01/22 00:52:26;;;;;;;0.50;0.50;;;8.70;99.90;;;;;;4418003;32;20094;-74
2021/01/22 00:54:52;;;;;;;0.40;0.40;;;8.80;99.90;;;;;;4418087;32;20073;-74
2021/01/22 00:57:17;;;;;;;0.28;0.28;;;8.90;99.90;;;;;;4418163;32;20417;-74
2021/01/22 00:59:43;;;;;;;0.82;0.45;;;8.90;99.90;;;;;;4418558;32;20511;-74
2021/01/22 01:02:09;;;;;;;0.47;0.47;;;9.00;99.90;;;;;;4417910;32;20078;-74
2021/01/22 01:04:35;;;;;;;0.30;0.30;;;9.10;99.90;;;;;;4417674;32;20073;-74
2021/01/22 01:07:00;;;;;;;0.30;0.30;;;9.20;99.90;;;;;;4412516;32;20085;-74
2021/01/22 01:09:26;;;;;;;0.30;0.30;;;9.20;99.90;;;;;;4402712;32;20070;-74
2021/01/22 01:11:51;;;;;;;0.30;0.30;;;9.30;99.90;;;;;;4408492;32;20065;-74
2021/01/22 01:14:17;;;;;;;0.35;0.35;;;9.50;99.90;;;;;;4418120;32;20136;-74
2021/01/22 01:16:43;;;;;;;0.50;0.50;;;9.60;99.90;;;;;;4417610;32;20065;-74
2021/01/22 01:19:08;;;;;;;0.30;0.30;;;9.70;99.90;;;;;;4417713;32;20069;-74
2021/01/22 01:21:34;;;;;;;0.25;0.25;;;9.90;99.90;;;;;;4417270;32;20057;-74
2021/01/22 01:23:59;;;;;;;0.30;0.30;;;10.00;99.90;;;;;;4417176;32;20081;-74
2021/01/22 01:26:25;;;;;;;0.50;0.50;;;10.10;99.90;;;;;;4418155;32;20065;-74
2021/01/22 01:28:50;;;;;;;1.15;0.75;;;10.20;99.90;;;;;;4417533;32;20185;-74
2021/01/22 01:31:16;;;;;;;0.30;0.30;;;10.20;99.90;;;;;;4417478;32;20070;-73
2021/01/22 01:33:41;;;;;;;0.37;0.37;;;10.30;99.90;;;;;;4417283;32;20090;-74
2021/01/22 01:36:07;;;;;;;0.22;0.22;;;10.30;99.90;;;;;;4417327;32;20074;-74
2021/01/22 01:38:33;;;;;;;0.52;0.52;;;10.40;99.90;;;;;;4417309;32;20065;-74
2021/01/22 01:40:58;;;;;;;0.30;0.30;;;10.50;99.90;;;;;;4417629;32;20082;-74
2021/01/22 01:43:25;;;;;;;57.45;0.80;;;10.50;99.90;;;;;;4417223;32;20082;-74
2021/01/22 01:45:50;;;;;;;0.32;0.32;;;10.60;99.90;;;;;;4417452;32;20086;-74
2021/01/22 01:48:17;;;;;;;0.25;0.25;;;10.50;99.90;;;;;;4416771;32;20061;-74
2021/01/22 01:50:44;;;;;;;0.25;0.25;;;10.60;99.90;;;;;;4416711;32;20081;-73
2021/01/22 01:53:10;;;;;;;7.03;0.57;;;10.70;99.90;;;;;;4417802;32;20086;-74
2021/01/22 01:55:36;;;;;;;0.30;0.30;;;10.70;99.90;;;;;;4416941;32;20074;-73
2021/01/22 01:58:03;;;;;;;0.28;0.28;;;10.70;99.90;;;;;;4417557;32;20090;-74
2021/01/22 02:00:30;;;;;;;2.05;0.40;;;10.70;99.90;;;;;;4416555;32;20117;-74
2021/01/22 02:02:55;;;;;;;0.30;0.30;;;10.80;99.90;;;;;;4416963;32;20070;-74
2021/01/22 02:05:20;;;;;;;0.30;0.30;;;10.80;99.90;;;;;;4416968;32;20079;-74
2021/01/22 02:07:46;;;;;;;0.20;0.20;;;10.80;99.90;;;;;;4405861;32;20066;-74
2021/01/22 02:10:12;;;;;;;0.30;0.30;;;10.90;99.90;;;;;;4402116;32;20069;-74
2021/01/22 02:12:39;;;;;;;3.30;0.73;;;10.90;99.90;;;;;;4413046;32;20515;-74
2021/01/22 02:15:08;;;;;;;0.30;0.30;;;10.90;99.90;;;;;;4417094;32;20125;-74
2021/01/22 02:17:34;;;;;;;0.20;0.20;;;11.00;99.90;;;;;;4416742;32;20093;-74
2021/01/22 02:20:10;;;;;;;0.20;0.20;;;11.00;99.90;;;;;;4415863;32;20090;-74
2021/01/22 02:22:38;;;;;;;0.30;0.30;;;11.00;99.90;;;;;;4416151;32;20094;-74
2021/01/22 02:25:06;;;;;;;0.20;0.20;;;11.10;99.90;;;;;;4418054;32;20518;-74
2021/01/22 02:27:33;;;;;;;0.30;0.30;;;11.10;99.90;;;;;;4416989;32;20069;-74
2021/01/22 02:29:59;;;;;;;0.20;0.20;;;11.10;99.90;;;;;;4416262;32;20087;-73
2021/01/22 02:32:25;;;;;;;48.47;1.15;;;11.10;99.90;;;;;;4416195;32;20069;-73
2021/01/22 02:34:52;;;;;;;0.20;0.20;;;11.10;99.90;;;;;;4416437;32;20070;-73
2021/01/22 02:37:20;;;;;;;0.40;0.40;;;11.20;99.90;;;;;;4415615;32;20468;-74
2021/01/22 02:39:49;;;;;;;0.30;0.30;;;11.20;99.90;;;;;;4416091;32;20090;-74
2021/01/22 02:42:16;;;;;;;0.30;0.30;;;11.20;99.90;;;;;;4416420;32;20082;-74
2021/01/22 02:44:43;;;;;;;0.20;0.20;;;11.20;99.90;;;;;;4416686;32;20062;-74
2021/01/22 02:47:09;;;;;;;0.28;0.28;;;11.20;99.90;;;;;;4417256;32;20184;-74
2021/01/22 02:49:36;;;;;;;0.28;0.28;;;11.20;99.90;;;;;;4415797;32;20073;-74
2021/01/22 02:52:02;;;;;;;0.25;0.25;;;11.20;99.90;;;;;;4417313;32;20069;-74
2021/01/22 02:54:28;;;;;;;0.20;0.20;;;11.10;99.90;;;;;;4416124;32;20078;-74
2021/01/22 02:57:14;;;;;;;0.20;0.20;;;11.10;99.90;;;;;;4415690;32;20482;-74
2021/01/22 02:59:53;;;;;;;0.25;0.25;;;11.20;99.90;;;;;;4416768;32;20081;-74
2021/01/22 03:02:25;;;;;;;0.20;0.20;;;11.10;99.90;;;;;;4416040;32;20497;-74
2021/01/22 03:04:53;;;;;;;0.20;0.20;;;11.10;99.90;;;;;;4416042;32;20406;-74
2021/01/22 03:07:28;;;;;;;0.20;0.20;;;11.10;99.90;;;;;;4408027;32;20065;-74
2021/01/22 03:09:59;;;;;;;0.30;0.30;;;11.10;99.90;;;;;;4400712;32;20086;-74
2021/01/22 03:12:26;;;;;;;0.40;0.40;;;11.20;99.90;;;;;;4400737;32;20062;-74
2021/01/22 03:14:53;;;;;;;0.30;0.30;;;11.20;99.90;;;;;;4400426;32;20499;-74
2021/01/22 03:17:19;;;;;;;0.20;0.20;;;11.20;99.90;;;;;;4400698;32;20405;-74
2021/01/22 03:19:48;;;;;;;0.15;0.15;;;11.20;99.90;;;;;;4400192;32;20117;-74
2021/01/22 03:22:14;;;;;;;0.22;0.22;;;11.30;99.90;;;;;;4400046;32;20066;-73
2021/01/22 03:24:41;;;;;;;0.28;0.28;;;11.30;99.90;;;;;;4400648;32;20528;-74
2021/01/22 03:27:07;;;;;;;0.22;0.22;;;11.20;99.90;;;;;;4400711;32;20563;-72
2021/01/22 03:29:32;;;;;;;0.30;0.30;;;11.20;99.90;;;;;;4400463;32;20078;-73
2021/01/22 03:31:59;;;;;;;0.22;0.22;;;11.20;99.90;;;;;;4402442;32;20422;-74
2021/01/22 03:34:26;;;;;;;0.30;0.30;;;11.10;99.90;;;;;;4400566;32;20065;-74
2021/01/22 03:36:54;;;;;;;0.20;0.20;;;11.00;99.90;;;;;;4399864;32;20082;-74
2021/01/22 03:39:22;;;;;;;0.30;0.30;;;11.00;99.90;;;;;;4400219;32;20065;-74
2021/01/22 03:41:47;;;;;;;0.20;0.20;;;11.10;99.90;;;;;;4400177;32;20117;-73
2021/01/22 03:44:13;;;;;;;0.30;0.30;;;11.10;99.90;;;;;;4400580;32;20430;-74
2021/01/22 03:46:39;;;;;;;0.30;0.30;;;11.00;99.90;;;;;;4401472;32;20127;-74
2021/01/22 03:49:04;;;;;;;0.20;0.20;;;11.00;99.90;;;;;;4399592;32;20086;-74
2021/01/22 03:51:30;;;;;;;0.30;0.30;;;11.00;99.90;;;;;;4399876;32;20063;-74
2021/01/22 03:53:55;;;;;;;0.20;0.20;;;11.00;99.90;;;;;;4400725;32;20061;-74
2021/01/22 03:56:20;;;;;;;0.30;0.30;;;11.00;99.90;;;;;;4399666;32;20070;-74
2021/01/22 03:58:46;;;;;;;0.30;0.30;;;11.00;99.90;;;;;;4400255;32;20470;-74
2021/01/22 04:01:11;;;;;;;0.30;0.30;;;11.00;99.90;;;;;;4400839;32;20070;-74
2021/01/22 04:03:37;;;;;;;0.30;0.30;;;11.10;99.90;;;;;;4400714;32;20074;-74
2021/01/22 04:06:03;;;;;;;0.30;0.30;;;11.00;99.90;;;;;;4400116;32;20074;-74
2021/01/22 04:08:30;;;;;;;0.30;0.30;;;11.00;99.90;;;;;;4399554;32;20139;-74
2021/01/22 04:10:55;;;;;;;0.20;0.20;;;11.10;99.90;;;;;;4399908;32;20249;-73
2021/01/22 04:13:21;;;;;;;0.32;0.32;;;11.10;99.90;;;;;;4415852;32;20062;-73
2021/01/22 04:15:47;;;;;;;0.30;0.30;;;11.00;99.90;;;;;;4415609;32;20201;-74
2021/01/22 04:18:13;;;;;;;0.55;0.55;;;11.00;99.90;;;;;;4414803;32;20069;-74
2021/01/22 04:20:39;;;;;;;0.77;0.77;;;11.00;99.90;;;;;;4414782;32;20069;-74
2021/01/22 04:23:04;;;;;;;1.37;0.40;;;11.00;99.90;;;;;;4415022;32;20125;-74
2021/01/22 04:25:30;;;;;;;0.30;0.30;;;11.00;99.90;;;;;;4416403;32;20069;-74
2021/01/22 04:27:55;;;;;;;0.30;0.30;;;11.00;99.90;;;;;;4415441;32;20543;-73
2021/01/22 04:30:21;;;;;;;0.40;0.40;;;11.00;99.90;;;;;;4415365;32;20078;-74
2021/01/22 04:32:46;;;;;;;0.20;0.20;;;11.00;99.90;;;;;;4415373;32;20066;-74
2021/01/22 04:35:13;;;;;;;0.30;0.30;;;11.00;99.90;;;;;;4415873;32;20065;-74
2021/01/22 04:37:41;;;;;;;0.30;0.30;;;11.00;99.90;;;;;;4414450;32;20121;-74
2021/01/22 04:40:08;;;;;;;0.22;0.22;;;10.90;99.90;;;;;;4415801;32;20180;-74
2021/01/22 04:42:39;;;;;;;0.30;0.30;;;11.00;99.90;;;;;;4415089;32;20125;-74
2021/01/22 04:45:07;;;;;;;0.30;0.30;;;10.90;99.90;;;;;;4415585;32;20070;-74
2021/01/22 04:47:32;;;;;;;0.10;0.10;;;10.90;99.90;;;;;;4415300;32;20062;-74
2021/01/22 04:50:00;;;;;;;0.30;0.30;;;10.90;99.90;;;;;;4415602;32;20125;-74
2021/01/22 04:52:26;;;;;;;0.30;0.30;;;10.90;99.90;;;;;;4414887;32;20074;-74
2021/01/22 04:54:53;;;;;;;0.20;0.20;;;10.90;99.90;;;;;;4414874;32;20073;-74
2021/01/22 04:57:19;;;;;;;0.20;0.20;;;10.90;99.90;;;;;;4415185;32;20082;-74
2021/01/22 04:59:50;;;;;;;0.32;0.32;;;10.90;99.90;;;;;;4416976;32;20460;-73
2021/01/22 05:02:16;;;;;;;;;;;10.80;99.90;;;;;;4418160;32;20113;-74
2021/01/22 05:04:41;;;;;;;0.22;0.22;;;10.80;99.90;;;;;;4418548;32;19962;-74
2021/01/22 05:07:08;;;;;;;0.25;0.25;;;10.90;99.90;;;;;;4410636;32;20128;-74
2021/01/22 05:09:34;;;;;;;0.30;0.30;;;10.80;99.90;;;;;;4403592;32;20082;-74
2021/01/22 05:11:59;;;;;;;0.55;0.55;;;10.80;99.90;;;;;;4408741;32;20058;-74
2021/01/22 05:14:25;;;;;;;7.22;0.50;;;10.80;99.90;;;;;;4417429;32;20117;-74
2021/01/22 05:17:00;;;;;;;0.30;0.30;;;10.80;99.90;;;;;;4417590;32;20402;-74
2021/01/22 05:19:26;;;;;;;0.40;0.40;;;10.80;99.90;;;;;;4416976;32;20062;-74
2021/01/22 05:21:52;;;;;;;0.20;0.20;;;10.80;99.90;;;;;;4416974;32;20125;-74
2021/01/22 05:24:21;;;;;;;0.30;0.30;;;10.80;99.90;;;;;;4417548;32;20511;-74
2021/01/22 05:26:47;;;;;;;0.30;0.30;;;10.70;99.90;;;;;;4417571;32;20588;-74
2021/01/22 05:29:15;;;;;;;0.20;0.20;;;10.80;99.90;;;;;;4417474;32;20058;-74
2021/01/22 05:31:40;;;;;;;0.75;0.50;;;10.80;99.90;;;;;;4417639;32;20065;-74
2021/01/22 05:34:06;;;;;;;0.30;0.30;;;10.80;99.90;;;;;;4417596;32;20074;-74
2021/01/22 05:36:32;;;;;;;0.28;0.28;;;10.80;99.90;;;;;;4416995;32;20527;-74
2021/01/22 05:39:00;;;;;;;0.30;0.30;;;10.80;99.90;;;;;;4416837;32;20530;-74
2021/01/22 05:41:27;;;;;;;0.25;0.25;;;10.80;99.90;;;;;;4417471;32;20425;-74
2021/01/22 05:43:53;;;;;;;0.30;0.30;;;10.80;99.90;;;;;;4416560;32;20058;-73
2021/01/22 05:46:21;;;;;;;0.20;0.20;;;10.80;99.90;;;;;;4410882;32;20120;-74
2021/01/22 05:48:48;;;;;;;0.40;0.40;;;10.80;99.90;;;;;;4401058;32;20079;-74
2021/01/22 05:51:14;;;;;;;0.30;0.30;;;10.80;99.90;;;;;;4401424;32;20078;-74
2021/01/22 05:53:46;;;;;;;0.88;0.40;;;10.70;99.90;;;;;;4401316;32;20062;-73
2021/01/22 05:56:16;;;;;;;0.32;0.30;;;10.70;99.90;;;;;;4401291;32;20082;-74
2021/01/22 05:58:44;;;;;;;0.20;0.20;;;10.70;99.90;;;;;;4402016;32;20071;-75
2021/01/22 06:01:12;;;;;;;2.05;0.60;;;10.70;99.90;;;;;;4401736;32;20083;-74
2021/01/22 06:03:39;;;;;;;0.30;0.30;;;10.70;99.90;;;;;;4399079;32;20093;-74
2021/01/22 06:06:07;;;;;;;0.32;0.32;;;10.70;99.90;;;;;;4415901;32;20073;-74
2021/01/22 06:08:32;;;;;;;0.20;0.20;;;10.70;99.90;;;;;;4405686;32;20058;-74
2021/01/22 06:11:00;;;;;;;0.20;0.20;;;10.70;99.90;;;;;;4415924;32;20132;-74
2021/01/22 06:13:27;;;;;;;0.30;0.30;;;10.60;99.90;;;;;;4401566;32;20058;-74
2021/01/22 06:15:56;;;;;;;0.20;0.20;;;10.60;99.90;;;;;;4401627;32;20075;-74
2021/01/22 06:18:32;;;;;;;0.20;0.20;;;10.60;99.90;;;;;;4400137;32;20070;-74
2021/01/22 06:21:08;;;;;;;0.20;0.20;;;10.70;99.90;;;;;;4401907;32;20078;-74
2021/01/22 06:23:35;;;;;;;0.25;0.25;;;10.60;99.90;;;;;;4401112;32;20404;-74
2021/01/22 06:26:03;;;;;;;0.30;0.30;;;10.60;99.90;;;;;;4400934;32;20090;-74
2021/01/22 06:28:30;;;;;;;0.35;0.35;;;10.60;99.90;;;;;;4401023;32;20066;-74
2021/01/22 06:30:55;;;;;;;0.30;0.30;;;10.50;99.90;;;;;;4401428;32;20070;-74
2021/01/22 06:33:23;;;;;;;0.57;0.47;;;10.50;99.90;;;;;;4401853;32;20129;-74
2021/01/22 06:35:50;;;;;;;0.20;0.20;;;10.50;99.90;;;;;;4401006;32;20074;-74
2021/01/22 06:38:20;;;;;;;0.20;0.20;;;10.50;99.90;;;;;;4400611;32;20066;-74
2021/01/22 06:40:46;;;;;;;0.30;0.30;;;10.50;99.90;;;;;;4400917;32;20077;-74
2021/01/22 06:43:11;;;;;;;0.22;0.22;;;10.50;99.90;;;;;;4400770;32;20082;-74
2021/01/22 06:45:38;;;;;;;0.30;0.30;;;10.50;99.90;;;;;;4400421;32;20082;-74
2021/01/22 06:48:06;;;;;;;0.30;0.30;;;10.40;99.90;;;;;;4401241;32;20105;-74
2021/01/22 06:50:33;;;;;;;0.30;0.30;;;10.40;99.90;;;;;;4402092;32;20070;-74
2021/01/22 06:53:17;;;;;;;1.80;0.45;;;10.40;99.90;;;;;;4400898;32;20136;-74
2021/01/22 06:56:00;;;;;;;0.45;0.45;;;10.40;99.90;;;;;;4400589;32;20065;-74
2021/01/22 06:58:28;;;;;;;0.30;0.30;;;10.40;99.90;;;;;;4414167;32;20488;-74
2021/01/22 07:00:57;;;;;;;0.55;0.55;;;10.40;99.90;;;;;;4416623;32;20066;-74
2021/01/22 07:03:40;;;;;;;0.25;0.25;;;10.40;99.90;;;;;;4417102;32;20061;-74
2021/01/22 07:06:07;;;;;;;0.30;0.30;;;10.40;99.90;;;;;;4416668;32;20094;-74
2021/01/22 07:08:53;;;;;;;0.35;0.35;;;10.40;99.90;;;;;;4402179;32;20473;-74
2021/01/22 07:11:18;;;;;;;0.40;0.40;;;10.40;99.90;;;;;;4402358;32;20079;-74
2021/01/22 07:13:47;;;;;;;0.30;0.30;;;10.40;99.90;;;;;;4416012;32;20081;-74
2021/01/22 07:16:19;;;;;;;0.20;0.20;;;10.30;99.90;;;;;;4415551;32;20164;-74
2021/01/22 07:19:02;;;;;;;0.37;0.37;;;10.40;99.90;;;;;;4415761;32;20451;-74
2021/01/22 07:21:30;;;;;;;0.30;0.30;;;10.40;99.90;;;;;;4415111;32;20116;-74
2021/01/22 07:23:58;;;;;;;1.45;1.15;;;10.40;99.90;;;;;;4415104;32;20066;-74
2021/01/22 07:26:50;;;;;;;0.32;0.28;;;10.40;99.90;;;;;;4415232;32;20065;-73
2021/01/22 07:29:19;;;;;;;0.30;0.30;;;10.40;99.90;;;;;;4414412;32;20515;-74
2021/01/22 07:31:50;;;;;;;0.32;0.32;;;10.50;99.90;;;;;;4417106;32;20074;-74
2021/01/22 07:34:37;;;;;;;0.30;0.30;;;10.50;99.90;;;;;;4416867;32;20504;-74
2021/01/22 07:37:04;;;;;;;0.30;0.30;;;10.50;99.90;;;;;;4415435;32;20077;-74
2021/01/22 07:39:30;;;;;;;0.30;0.30;;;10.50;99.90;;;;;;4415360;32;20078;-74
2021/01/22 07:42:06;;;;;;;0.40;0.40;;;10.60;99.90;;;;;;4415248;32;20069;-74
2021/01/22 07:44:31;;;;;;;0.30;0.30;;;10.60;99.90;;;;;;4415343;32;20511;-74
2021/01/22 07:46:58;;;;;;;0.15;0.15;;;10.60;99.90;;;;;;4415188;32;20069;-74
2021/01/22 07:49:23;;;;;;;1.05;0.30;;;10.60;99.90;;;;;;4414724;32;20086;-74
2021/01/22 07:51:49;;;;;;;0.30;0.30;;;10.60;99.90;;;;;;4415247;32;20070;-74
2021/01/22 07:54:15;;;;;;;0.30;0.30;;;10.70;99.90;;;;;;4414591;32;20081;-74
2021/01/22 07:56:42;;;;;;;0.43;0.43;;;10.70;99.90;;;;;;4414890;32;20069;-74
2021/01/22 07:59:13;;;;;;;0.20;0.20;;;10.70;99.90;;;;;;4401321;32;20078;-74
2021/01/22 08:01:39;;;;;;;0.55;0.55;;;10.80;99.90;;;;;;4400684;32;20066;-74
2021/01/22 08:04:05;;;;;;;0.43;0.43;;;10.80;99.90;;;;;;4401206;32;20112;-74
2021/01/22 08:06:47;;;;;;;2.55;1.20;;;10.90;99.90;;;;;;4400153;32;20062;-74
2021/01/22 08:09:17;;;;;;;0.32;0.32;;;10.90;99.90;;;;;;4400651;32;20130;-74
2021/01/22 08:11:43;;;;;;;0.20;0.20;;;10.90;99.90;;;;;;4404948;32;20081;-74
2021/01/22 08:14:08;;;;;;;0.40;0.40;;;10.90;99.90;;;;;;4416562;32;20090;-74
2021/01/22 08:16:36;;;;;;;0.40;0.40;;;11.00;99.90;;;;;;4407936;32;20069;-74
2021/01/22 08:19:03;;;;;;;0.30;0.30;;;11.00;99.90;;;;;;4399609;32;20095;-74
2021/01/22 08:21:30;;;;;;;0.30;0.30;;;11.00;99.90;;;;;;4399302;32;20395;-74
2021/01/22 08:23:58;;;;;;;0.85;0.68;;;11.00;99.90;;;;;;4400026;32;20058;-74
2021/01/22 08:26:26;;;;;;;0.30;0.30;;;11.00;99.90;;;;;;4393674;32;20085;-74
2021/01/22 08:28:54;;;;;;;0.30;0.30;;;11.10;99.90;;;;;;4413528;32;20508;-74
2021/01/22 08:31:21;;;;;;;0.50;0.50;;;11.00;99.90;;;;;;4399628;32;20528;-74
2021/01/22 08:33:47;;;;;;;0.40;0.40;;;11.00;99.90;;;;;;4400736;32;20075;-74
2021/01/22 08:36:15;;;;;;;0.30;0.30;;;11.00;99.90;;;;;;4401643;32;20070;-74
2021/01/22 08:38:41;;;;;;;0.43;0.43;;;11.00;99.90;;;;;;4401301;32;20548;-74
2021/01/22 08:41:06;;;;;;;1.55;0.90;;;11.00;99.90;;;;;;4399133;32;108424;-74
2021/01/22 08:43:48;;;;;;;0.30;0.30;;;11.00;99.90;;;;;;4401691;32;20531;-74
2021/01/22 08:46:14;;;;;;;0.30;0.30;;;11.00;99.90;;;;;;4406584;32;20069;-74
2021/01/22 08:48:39;;;;;;;0.30;0.30;;;10.90;99.90;;;;;;4395990;32;20093;-74
2021/01/22 08:51:06;;;;;;;0.43;0.43;;;10.70;99.90;;;;;;4398711;32;20066;-74
2021/01/22 08:53:33;;;;;;;0.30;0.30;;;10.00;99.90;;;;;;4404181;32;20082;-73
2021/01/22 08:56:16;;;;;;;0.28;0.28;;;9.30;99.90;;;;;;4405059;32;20570;-74
2021/01/22 08:59:10;;;;;;;0.28;0.28;;;8.90;99.90;;;;;;4404136;32;20074;-75
2021/01/22 09:02:02;;;;;;;6.85;0.30;;;8.60;99.90;;;;;;4404232;32;20075;-74
2021/01/22 09:04:31;;;;;;;0.20;0.20;;;8.40;99.90;;;;;;4404222;32;20102;-74
2021/01/22 09:07:00;;;;;;;0.20;0.20;;;8.30;99.90;;;;;;4407181;32;20086;-75
2021/01/22 09:09:46;;;;;;;0.30;0.30;;;8.30;99.90;;;;;;4404507;32;20077;-74
2021/01/22 09:12:14;;;;;;;0.30;0.30;;;8.20;99.90;;;;;;4404414;32;20070;-74
2021/01/22 09:14:59;;;;;;;0.20;0.20;;;8.10;99.90;;;;;;4401535;32;20456;-75
2021/01/22 09:17:42;;;;;;;0.20;0.20;;;8.00;99.90;;;;;;4405530;32;20106;-75
2021/01/22 09:20:18;;;;;;;0.30;0.30;;;8.00;99.90;;;;;;4400474;32;20070;-75
2021/01/22 09:22:46;;;;;;;0.20;0.20;;;8.00;99.90;;;;;;4402634;32;20065;-74
2021/01/22 09:25:15;;;;;;;0.30;0.30;;;8.00;99.90;;;;;;4401585;32;20500;-74
2021/01/22 09:27:42;;;;;;;0.20;0.20;;;7.90;99.90;;;;;;4401316;32;20406;-74
2021/01/22 09:30:17;;;;;;;0.30;0.30;;;7.90;99.90;;;;;;4399615;32;20181;-75
2021/01/22 09:32:49;;;;;;;0.47;0.47;;;7.80;99.90;;;;;;4397696;32;20070;-74
2021/01/22 09:35:15;;;;;;;0.30;0.30;;;7.80;99.90;;;;;;4387480;32;20513;-74
2021/01/22 09:37:41;;;;;;;0.30;0.30;;;7.90;99.90;;;;;;4400367;32;20077;-75
2021/01/22 09:40:07;;;;;;;0.20;0.20;;;8.00;99.90;;;;;;4402164;32;20086;-74
2021/01/22 09:42:34;;;;;;;0.30;0.30;;;8.10;99.90;;;;;;4394040;32;20153;-74
2021/01/22 09:44:59;;;;;;;0.30;0.30;;;8.00;99.90;;;;;;4400437;32;20558;-74
2021/01/22 09:47:25;;;;;;;0.30;0.30;;;7.90;99.90;;;;;;4400755;32;20066;-74
2021/01/22 09:49:50;;;;;;;0.30;0.30;;;8.00;99.90;;;;;;4401161;32;20095;-74
2021/01/22 09:52:16;;;;;;;0.30;0.30;;;8.00;99.90;;;;;;4401444;32;20124;-74
2021/01/22 09:54:42;;;;;;;0.30;0.30;;;7.90;99.90;;;;;;4401997;32;20086;-74
2021/01/22 09:57:08;;;;;;;0.22;0.22;;;8.00;99.90;;;;;;4404712;32;20063;-75
2021/01/22 09:59:34;;;;;;;0.30;0.30;;;8.00;99.90;;;;;;4404470;32;20069;-75
2021/01/22 10:01:59;;;;;;;0.22;0.22;;;8.10;99.90;;;;;;4402074;32;20555;-76
2021/01/22 10:04:25;;;;;;;0.30;0.30;;;8.20;99.90;;;;;;4404780;32;20090;-74
2021/01/22 10:06:50;;;;;;;0.43;0.43;;;8.20;99.90;;;;;;4403969;32;20117;-75
2021/01/22 10:09:16;;;;;;;0.40;0.40;;;8.10;99.90;;;;;;4406813;32;20074;-74
2021/01/22 10:11:42;;;;;;;0.30;0.30;;;8.20;99.90;;;;;;4406571;32;20074;-74
2021/01/22 10:14:08;;;;;;;0.20;0.20;;;8.10;99.90;;;;;;4402285;32;20082;-74
2021/01/22 10:16:34;;;;;;;0.20;0.20;;;8.20;99.90;;;;;;4405148;32;20074;-73
2021/01/22 10:19:01;;;;;;;0.20;0.20;;;8.30;99.90;;;;;;4401338;32;20065;-75
2021/01/22 10:21:27;;;;;;;0.20;0.20;;;8.30;99.90;;;;;;4391794;32;20083;-74
2021/01/22 10:23:52;;;;;;;0.35;0.35;;;8.30;99.90;;;;;;4398416;32;20067;-73
2021/01/22 10:26:20;;;;;;;0.22;0.22;;;8.30;99.90;;;;;;4394824;32;20090;-74
2021/01/22 10:28:45;;;;;;;0.20;0.20;;;8.30;99.90;;;;;;4402196;32;20121;-74
2021/01/22 10:31:11;;;;;;;0.20;0.20;;;8.20;99.90;;;;;;4402473;32;20074;-73
2021/01/22 10:33:37;;;;;;;0.30;0.30;;;8.20;99.90;;;;;;4405836;32;20524;-74
2021/01/22 10:36:04;;;;;;;0.20;0.20;;;8.20;99.90;;;;;;4403424;32;20066;-74
2021/01/22 10:38:30;;;;;;;0.30;0.30;;;8.20;99.90;;;;;;4401250;32;20133;-74
2021/01/22 10:40:55;;;;;;;0.30;0.30;;;8.20;99.90;;;;;;4402462;32;20136;-75
2021/01/22 10:43:22;;;;;;;0.20;0.20;;;8.20;99.90;;;;;;4401992;32;20082;-75
2021/01/22 10:45:49;;;;;;;0.20;0.20;;;8.30;99.90;;;;;;4400871;32;20515;-75
2021/01/22 10:48:16;;;;;;;0.30;0.30;;;8.40;99.90;;;;;;4398101;32;20062;-75
2021/01/22 10:50:44;;;;;;;0.20;0.20;;;8.40;99.90;;;;;;4402053;32;20457;-75
2021/01/22 10:53:09;;;;;;;0.28;0.28;;;8.50;99.90;;;;;;4402305;32;20063;-75
2021/01/22 10:55:35;;;;;;;0.30;0.30;;;8.50;99.90;;;;;;4401906;32;20087;-75
2021/01/22 10:58:01;;;;;;;0.30;0.30;;;8.50;99.90;;;;;;4400455;32;20527;-74
2021/01/22 11:00:26;;;;;;;0.30;0.30;;;8.40;99.90;;;;;;4400726;32;20079;-75
2021/01/22 11:02:52;;;;;;;0.35;0.35;;;8.40;99.90;;;;;;4399912;32;20070;-74
2021/01/22 11:05:17;;;;;;;0.20;0.20;;;8.30;99.90;;;;;;4386809;32;20090;-75
2021/01/22 11:07:43;;;;;;;0.28;0.28;;;8.30;99.90;;;;;;4397496;32;20444;-75
2021/01/22 11:10:09;;;;;;;0.35;0.35;;;8.30;99.90;;;;;;4401541;32;20086;-74
2021/01/22 11:12:35;;;;;;;0.30;0.30;;;8.30;99.90;;;;;;4401743;32;20112;-74
2021/01/22 11:15:00;;;;;;;0.60;0.60;;;8.20;99.90;;;;;;4401027;32;20076;-74
2021/01/22 11:17:26;;;;;;;0.30;0.30;;;8.10;99.90;;;;;;4401606;32;20070;-74
2021/01/22 11:19:51;;;;;;;0.20;0.20;;;8.00;99.90;;;;;;4400514;32;20083;-73
2021/01/22 11:22:17;;;;;;;0.30;0.30;;;8.00;99.90;;;;;;4402298;32;20114;-73
2021/01/22 11:24:43;;;;;;;0.30;0.30;;;8.00;99.90;;;;;;4402684;32;20129;-73
2021/01/22 11:27:10;;;;;;;0.37;0.37;;;8.00;99.90;;;;;;4400651;32;20521;-73
2021/01/22 11:29:37;;;;;;;0.20;0.20;;;8.10;99.90;;;;;;4392664;32;20086;-74
2021/01/22 11:32:02;;;;;;;0.30;0.30;;;7.90;99.90;;;;;;4399259;32;20066;-75
2021/01/22 11:34:28;;;;;;;0.30;0.30;;;7.90;99.90;;;;;;4401358;32;20540;-74
2021/01/22 11:36:53;;;;;;;0.35;0.35;;;7.80;99.90;;;;;;4398840;32;20472;-76
2021/01/22 11:39:19;;;;;;;0.20;0.20;;;7.80;99.90;;;;;;4396236;32;20106;-75
2021/01/22 11:41:45;;;;;;;0.30;0.30;;;7.70;99.90;;;;;;4400560;32;20066;-77
2021/01/22 11:44:10;;;;;;;0.30;0.30;;;7.80;99.90;;;;;;4396036;32;20174;-74
2021/01/22 11:46:37;;;;;;;0.20;0.20;;;7.90;99.90;;;;;;4393076;32;20065;-74
2021/01/22 11:49:02;;;;;;;0.30;0.30;;;8.00;99.90;;;;;;4394152;32;20078;-74
2021/01/22 11:51:28;;;;;;;2.90;0.55;;;8.00;99.90;;;;;;4397044;32;20117;-73
2021/01/22 11:53:53;;;;;;;0.30;0.30;;;8.00;99.90;;;;;;4386484;32;20075;-74
2021/01/22 11:56:19;;;;;;;0.30;0.30;;;8.10;99.90;;;;;;4394963;32;20898;-73
2021/01/22 11:58:45;;;;;;;0.20;0.20;;;8.20;99.90;;;;;;4395945;32;20102;-74
2021/01/22 12:01:10;;;;;;;0.30;0.30;;;8.20;99.90;;;;;;4391882;32;20079;-74
2021/01/22 12:03:36;;;;;;;0.32;0.32;;;8.20;99.90;;;;;;4398237;32;20503;-75
2021/01/22 12:06:01;;;;;;;0.22;0.22;;;8.30;99.90;;;;;;4388812;32;20065;-76
2021/01/22 12:08:27;;;;;;;0.30;0.30;;;8.30;99.90;;;;;;4397926;32;20137;-75
2021/01/22 12:10:53;;;;;;;0.30;0.30;;;8.30;99.90;;;;;;4400427;32;20410;-75
2021/01/22 12:13:19;;;;;;;0.20;0.20;;;8.40;99.90;;;;;;4407938;32;20074;-75
2021/01/22 12:15:46;;;;;;;0.20;0.20;;;8.40;99.90;;;;;;4411640;32;20136;-75
2021/01/22 12:18:11;;;;;;;0.30;0.30;;;8.40;99.90;;;;;;4403970;32;20074;-74
2021/01/22 12:20:37;;;;;;;0.30;0.30;;;8.40;99.90;;;;;;4396850;32;20141;-74
2021/01/22 12:23:03;;;;;;;0.30;0.30;;;8.50;99.90;;;;;;4395925;32;20078;-75
2021/01/22 12:25:28;;;;;;;0.30;0.30;;;8.40;99.90;;;;;;4397884;32;20082;-75
2021/01/22 12:27:53;;;;;;;0.20;0.20;;;8.30;99.90;;;;;;4398420;32;20129;-74
2021/01/22 12:30:20;;;;;;;0.30;0.30;;;8.20;99.90;;;;;;4401562;32;20058;-75
2021/01/22 12:32:45;;;;;;;0.20;0.20;;;8.30;99.90;;;;;;4399668;32;20133;-74
2021/01/22 12:35:11;;;;;;;1.75;0.75;;;8.20;99.90;;;;;;4403852;32;20569;-74
2021/01/22 12:37:36;;;;;;;0.30;0.30;;;8.10;99.90;;;;;;4399360;32;20066;-74
2021/01/22 12:40:03;;;;;;;0.40;0.40;;;7.90;99.90;;;;;;4398141;32;20430;-75
2021/01/22 12:42:28;;;;;;;0.30;0.30;;;7.90;99.90;;;;;;4406780;32;20591;-75
2021/01/22 12:44:54;;;;;;;0.20;0.20;;;8.00;99.90;;;;;;4398368;32;20069;-75
2021/01/22 12:47:19;;;;;;;0.20;0.20;;;8.00;99.90;;;;;;4397298;32;20158;-75
2021/01/22 12:49:45;;;;;;;0.20;0.20;;;8.10;99.90;;;;;;4397565;32;20516;-75
2021/01/22 12:52:10;;;;;;;0.30;0.30;;;8.10;99.90;;;;;;4397602;32;20086;-75